Time;durP1;ratioP1;P1;durP2;ratioP2;P2;SDS_P1;SDS_P2;PMS_P1;PMS_P2;Temp;Humidity;BMP_temperature;BMP_pressure;BME280_temperature;BME280_humidity;BME280_pressure;Samples;Min_cycle;Max_cycle;Signal;HPM_P1;HPM_P2
2020/12/20 00:00:13;;;;;;;12.38;2.63;;;;;;;9.19;100.00;101113.28;4950498;28;20029;-71
2020/12/20 00:02:40;;;;;;;7.25;2.47;;;;;;;9.19;100.00;101110.59;4967380;28;20034;-71
2020/12/20 00:05:06;;;;;;;16.17;2.70;;;;;;;9.24;100.00;101106.72;4952562;28;20402;-71
2020/12/20 00:07:32;;;;;;;11.68;2.53;;;;;;;9.23;100.00;101098.78;4969206;28;20031;-72
2020/12/20 00:09:57;;;;;;;5.10;2.10;;;;;;;9.19;100.00;101106.13;4968818;28;20041;-71
2020/12/20 00:12:23;;;;;;;11.65;2.17;;;;;;;9.14;100.00;101104.59;4966948;28;20500;-71
2020/12/20 00:14:48;;;;;;;8.65;2.28;;;;;;;9.11;100.00;101104.75;4950325;28;20054;-71
2020/12/20 00:17:14;;;;;;;9.70;2.20;;;;;;;9.10;100.00;101100.34;4971104;28;20031;-71
2020/12/20 00:19:39;;;;;;;6.65;2.30;;;;;;;9.06;100.00;101104.16;4971213;28;20758;-71
2020/12/20 00:22:11;;;;;;;4.63;2.67;;;;;;;9.00;100.00;101097.31;4970464;28;20136;-71
2020/12/20 00:24:37;;;;;;;11.50;3.10;;;;;;;9.06;100.00;101096.13;4967134;28;20484;-72
2020/12/20 00:27:04;;;;;;;12.93;3.22;;;;;;;9.00;100.00;101091.06;4970800;28;20065;-71
2020/12/20 00:29:32;;;;;;;14.07;3.10;;;;;;;8.99;100.00;101089.34;4970066;28;20039;-71
2020/12/20 00:32:02;;;;;;;5.50;2.97;;;;;;;8.95;100.00;101093.13;4950189;28;20031;-71
2020/12/20 00:34:28;;;;;;;10.88;3.85;;;;;;;9.11;100.00;101094.94;4966383;28;20030;-71
2020/12/20 00:36:54;;;;;;;10.27;3.67;;;;;;;9.10;100.00;101092.31;4971423;28;20034;-71
2020/12/20 00:39:20;;;;;;;6.65;2.55;;;;;;;9.17;100.00;101085.69;4974141;28;20471;-70
2020/12/20 00:41:50;;;;;;;8.30;3.95;;;;;;;9.14;100.00;101088.53;4968740;28;20034;-71
2020/12/20 00:44:16;;;;;;;6.05;2.60;;;;;;;9.07;100.00;101088.00;4970565;28;20407;-71
2020/12/20 00:46:41;;;;;;;4.72;2.42;;;;;;;9.00;100.00;101081.22;4970391;28;20035;-72
2020/12/20 00:49:07;;;;;;;11.13;3.15;;;;;;;8.93;100.00;101088.72;4968263;28;20035;-71
2020/12/20 00:51:33;;;;;;;5.43;2.83;;;;;;;8.88;100.00;101093.44;4952903;28;20123;-71
2020/12/20 00:54:00;;;;;;;5.85;2.97;;;;;;;8.85;100.00;101096.25;4970156;28;20086;-71
2020/12/20 00:56:27;;;;;;;5.10;2.88;;;;;;;8.80;100.00;101092.09;4969094;28;20101;-71
2020/12/20 00:58:53;;;;;;;5.88;2.65;;;;;;;8.75;100.00;101102.19;4968137;28;20491;-71
2020/12/20 01:01:20;;;;;;;10.48;3.03;;;;;;;8.70;100.00;101089.00;5009803;23;20046;-72
2020/12/20 01:03:45;;;;;;;4.55;2.72;;;;;;;8.66;100.00;101095.47;4954975;28;20038;-71
2020/12/20 01:06:18;;;;;;;7.93;3.25;;;;;;;8.65;100.00;101091.03;4975707;28;20038;-70
2020/12/20 01:08:45;;;;;;;4.53;2.88;;;;;;;8.67;100.00;101110.59;4972524;28;20038;-70
2020/12/20 01:11:12;;;;;;;5.97;3.70;;;;;;;8.64;100.00;101110.72;4974707;28;20026;-70
2020/12/20 01:13:47;;;;;;;10.70;3.22;;;;;;;8.64;100.00;101104.53;4976060;28;20031;-70
2020/12/20 01:16:22;;;;;;;8.98;3.17;;;;;;;8.63;100.00;101111.69;4968695;28;20100;-71
2020/12/20 01:18:47;;;;;;;8.07;3.28;;;;;;;8.63;100.00;101109.00;4972253;28;20042;-71
2020/12/20 01:21:14;;;;;;;5.95;2.95;;;;;;;8.60;100.00;101103.81;4955698;28;20379;-71
2020/12/20 01:23:40;;;;;;;7.40;3.00;;;;;;;8.59;100.00;101110.09;4987141;28;20405;-71
2020/12/20 01:26:06;;;;;;;7.10;3.17;;;;;;;8.57;100.00;101106.66;4951226;28;20022;-71
2020/12/20 01:28:33;;;;;;;7.88;3.53;;;;;;;8.55;100.00;101104.97;4953581;28;20820;-71
2020/12/20 01:31:00;;;;;;;8.77;4.32;;;;;;;8.70;100.00;101104.22;4956975;28;20169;-71
2020/12/20 01:33:42;;;;;;;8.55;3.90;;;;;;;8.68;100.00;101106.97;4971135;28;20573;-71
2020/12/20 01:36:12;;;;;;;7.07;3.45;;;;;;;8.59;100.00;101106.53;4967553;28;20038;-71
2020/12/20 01:38:40;;;;;;;10.35;3.70;;;;;;;8.57;100.00;101117.34;4967574;28;20089;-72
2020/12/20 01:41:07;;;;;;;10.48;4.25;;;;;;;8.65;100.00;101116.94;4966973;28;20097;-72
2020/12/20 01:43:46;;;;;;;7.53;4.20;;;;;;;8.77;100.00;101117.19;4972961;28;20030;-71
2020/12/20 01:46:19;;;;;;;9.57;5.03;;;;;;;8.85;100.00;101125.72;4955289;28;20947;-71
2020/12/20 01:48:45;;;;;;;13.25;5.28;;;;;;;8.80;100.00;101126.88;4955961;28;20577;-70
2020/12/20 01:51:12;;;;;;;11.65;5.07;;;;;;;8.78;100.00;101126.97;4955632;28;20780;-70
2020/12/20 01:53:41;;;;;;;12.75;5.65;;;;;;;8.86;100.00;101132.81;4984371;28;20050;-72
2020/12/20 01:56:08;;;;;;;12.98;5.40;;;;;;;8.81;100.00;101118.78;4970498;28;20069;-72
2020/12/20 01:58:40;;;;;;;12.23;6.07;;;;;;;8.80;100.00;101111.69;4952105;28;20032;-71
2020/12/20 02:01:13;;;;;;;15.88;6.18;;;;;;;8.80;100.00;101111.69;4970049;28;20109;-71
2020/12/20 02:03:51;;;;;;;14.88;6.07;;;;;;;8.84;100.00;101105.22;4971003;28;20097;-71
2020/12/20 02:06:28;;;;;;;10.52;5.25;;;;;;;8.87;100.00;101112.25;4972857;28;20034;-72
2020/12/20 02:08:58;;;;;;;12.25;5.07;;;;;;;8.88;100.00;101109.50;4966054;28;20026;-71
2020/12/20 02:11:24;;;;;;;11.90;5.30;;;;;;;8.91;100.00;101109.34;4983291;28;20036;-71
2020/12/20 02:13:52;;;;;;;11.10;5.63;;;;;;;8.92;100.00;101113.75;4985164;28;20030;-72
2020/12/20 02:16:24;;;;;;;10.25;5.15;;;;;;;8.98;100.00;101109.03;4965493;28;20034;-71
2020/12/20 02:18:51;;;;;;;12.38;5.78;;;;;;;9.00;100.00;101112.50;4967131;28;20038;-71
2020/12/20 02:21:21;;;;;;;15.38;5.22;;;;;;;8.98;100.00;101109.03;4972052;28;20572;-71
2020/12/20 02:23:51;;;;;;;13.13;5.90;;;;;;;8.87;100.00;101112.25;4970775;28;20038;-71
2020/12/20 02:26:23;;;;;;;11.02;5.68;;;;;;;8.87;100.00;101114.94;4984521;28;20027;-69
2020/12/20 02:28:54;;;;;;;10.98;6.03;;;;;;;8.83;100.00;101116.88;4962273;28;20040;-71
2020/12/20 02:31:26;;;;;;;10.73;5.25;;;;;;;8.80;100.00;101103.66;4966376;28;20045;-71
2020/12/20 02:33:54;;;;;;;11.55;5.88;;;;;;;8.91;100.00;101101.31;4983759;28;20035;-71
2020/12/20 02:36:20;;;;;;;15.10;7.25;;;;;;;8.82;100.00;101099.13;4964297;28;20097;-71
2020/12/20 02:38:46;;;;;;;13.27;6.30;;;;;;;8.63;100.00;101106.34;4970346;28;20037;-74
2020/12/20 02:41:35;;;;;;;11.55;6.60;;;;;;;8.56;100.00;101107.59;4966765;28;20030;-71
2020/12/20 02:44:03;;;;;;;16.77;6.47;;;;;;;8.49;100.00;101111.50;4944984;28;20674;-72
2020/12/20 02:46:30;;;;;;;11.02;6.38;;;;;;;8.47;100.00;101100.00;4953957;28;20517;-71
2020/12/20 02:49:03;;;;;;;21.48;7.15;;;;;;;8.46;100.00;101098.25;4968817;28;20510;-71
2020/12/20 02:51:31;;;;;;;17.83;7.60;;;;;;;8.40;100.00;101098.56;4984045;28;20049;-70
2020/12/20 02:53:57;;;;;;;13.40;7.22;;;;;;;8.39;100.00;101105.72;4967598;28;20087;-71
2020/12/20 02:56:34;;;;;;;16.08;6.85;;;;;;;8.36;100.00;101105.00;4969851;28;20034;-72
2020/12/20 02:59:02;;;;;;;15.35;7.47;;;;;;;8.37;100.00;101107.63;4978035;28;20101;-70
2020/12/20 03:01:27;;;;;;;14.43;7.63;;;;;;;8.34;100.00;101112.25;4988330;28;20469;-69
2020/12/20 03:03:54;;;;;;;14.48;7.80;;;;;;;8.32;100.00;101111.47;4967413;28;20037;-71
2020/12/20 03:06:20;;;;;;;11.95;6.47;;;;;;;8.27;100.00;101111.63;4948585;28;20036;-70
2020/12/20 03:08:48;;;;;;;11.15;6.55;;;;;;;8.29;100.00;101114.25;4970819;28;20034;-69
2020/12/20 03:11:15;;;;;;;10.93;6.93;;;;;;;8.26;100.00;101103.72;4954218;28;20040;-72
2020/12/20 03:13:40;;;;;;;13.13;6.25;;;;;;;8.44;100.00;101114.41;4985346;28;20030;-69
2020/12/20 03:16:06;;;;;;;16.90;6.68;;;;;;;8.34;100.00;101117.59;4968949;28;20717;-69
2020/12/20 03:18:35;;;;;;;14.52;8.02;;;;;;;8.32;100.00;101115.00;4965676;28;20122;-71
2020/12/20 03:21:02;;;;;;;19.73;7.68;;;;;;;8.31;100.00;101110.59;4971931;28;20468;-70
2020/12/20 03:23:37;;;;;;;23.60;8.20;;;;;;;8.24;100.00;101121.63;4968469;28;20053;-70
2020/12/20 03:26:28;;;;;;;21.17;8.13;;;;;;;8.23;100.00;101117.22;4980724;28;20332;-71
2020/12/20 03:29:32;;;;;;;;;;;;;;;8.37;100.00;101120.13;4972570;28;20045;-72
2020/12/20 03:32:29;;;;;;;14.85;7.22;;;;;;;8.30;100.00;101114.22;4978532;28;19940;-71
2020/12/20 03:35:05;;;;;;;19.13;8.18;;;;;;;8.24;100.00;101121.63;4964271;28;20027;-69
2020/12/20 03:37:54;;;;;;;19.83;9.00;;;;;;;8.44;100.00;101125.09;4963145;28;20038;-71
2020/12/20 03:40:24;;;;;;;16.92;9.65;;;;;;;8.41;100.00;101119.03;4961316;28;20038;-70
2020/12/20 03:42:51;;;;;;;15.65;8.27;;;;;;;8.37;100.00;101122.81;4970069;28;20041;-71
2020/12/20 03:45:18;;;;;;;18.90;8.95;;;;;;;8.32;100.00;101128.38;4964761;28;20034;-72
2020/12/20 03:47:45;;;;;;;17.63;8.40;;;;;;;8.27;100.00;101129.50;4981532;28;20115;-71
2020/12/20 03:50:11;;;;;;;15.82;8.35;;;;;;;8.23;100.00;101127.91;4971802;28;20062;-72
2020/12/20 03:52:37;;;;;;;18.35;8.32;;;;;;;8.32;100.00;101131.06;4953110;28;20042;-72
2020/12/20 03:55:29;;;;;;;19.27;10.10;;;;;;;8.29;100.00;101127.63;4983525;28;20116;-72
2020/12/20 03:57:55;;;;;;;21.00;9.80;;;;;;;8.63;100.00;101121.53;4980608;28;20363;-71
2020/12/20 04:00:24;;;;;;;24.05;9.98;;;;;;;8.65;100.00;101128.50;4985396;28;20054;-71
2020/12/20 04:03:10;;;;;;;23.23;10.23;;;;;;;8.63;100.00;101121.53;4990527;28;20038;-71
2020/12/20 04:05:40;;;;;;;17.50;9.82;;;;;;;8.75;100.00;101123.59;4973764;28;20056;-71
2020/12/20 04:08:06;;;;;;;22.23;9.38;;;;;;;8.68;100.00;101115.00;4967516;28;20030;-72
2020/12/20 04:10:32;;;;;;;24.60;9.65;;;;;;;8.78;100.00;101124.28;4970614;28;20414;-72
2020/12/20 04:12:57;;;;;;;16.05;9.05;;;;;;;8.70;100.00;101118.44;4976422;28;20509;-71
2020/12/20 04:15:29;;;;;;;20.25;10.63;;;;;;;8.63;100.00;101116.16;4961329;28;20050;-71
2020/12/20 04:17:55;;;;;;;22.33;10.70;;;;;;;8.66;100.00;101118.69;4987867;28;20119;-71
2020/12/20 04:20:21;;;;;;;17.48;9.63;;;;;;;8.55;100.00;101116.53;4962711;28;20027;-70
2020/12/20 04:22:53;;;;;;;22.83;10.02;;;;;;;8.58;100.00;101115.53;4966630;28;20648;-71
2020/12/20 04:25:34;;;;;;;19.75;9.30;;;;;;;8.57;100.00;101119.16;4985865;28;20530;-71
2020/12/20 04:28:18;;;;;;;19.58;9.57;;;;;;;8.41;100.00;101124.38;4958321;28;20038;-71
2020/12/20 04:30:44;;;;;;;16.63;9.95;;;;;;;8.37;100.00;101114.78;4972994;28;20050;-72
2020/12/20 04:33:18;;;;;;;;;;;;;;;8.37;100.00;101117.44;4973689;28;20406;-70
2020/12/20 04:35:46;;;;;;;21.58;10.55;;;;;;;8.41;100.00;101119.03;4975388;28;19964;-72
2020/12/20 04:38:14;;;;;;;22.40;10.23;;;;;;;8.34;100.00;101118.44;4974735;28;20046;-71
2020/12/20 04:40:42;;;;;;;16.42;9.50;;;;;;;8.33;100.00;101118.56;4972407;28;20041;-72
2020/12/20 04:43:11;;;;;;;19.17;9.68;;;;;;;8.36;100.00;101121.94;4986182;28;20027;-72
2020/12/20 04:45:38;;;;;;;18.33;9.73;;;;;;;8.48;100.00;101125.81;4954418;28;20038;-72
2020/12/20 04:48:11;;;;;;;27.38;10.15;;;;;;;8.36;100.00;101121.06;4973297;28;20037;-72
2020/12/20 04:50:47;;;;;;;16.13;9.07;;;;;;;8.30;100.00;101116.88;4965426;28;20027;-71
2020/12/20 04:53:14;;;;;;;16.17;9.10;;;;;;;8.30;100.00;101122.22;4971498;28;20026;-72
2020/12/20 04:55:51;;;;;;;20.63;9.40;;;;;;;8.38;100.00;101113.84;4970046;28;20034;-71
2020/12/20 04:58:24;;;;;;;18.15;9.68;;;;;;;8.40;100.00;101118.16;4972210;28;20141;-72
2020/12/20 05:00:51;;;;;;;18.55;9.52;;;;;;;8.36;100.00;101105.88;4950361;28;20045;-70
2020/12/20 05:03:17;;;;;;;20.58;9.85;;;;;;;8.29;100.00;101100.88;4989255;28;20034;-69
2020/12/20 05:05:50;;;;;;;19.63;10.55;;;;;;;8.32;100.00;101103.44;4970349;28;20035;-72
2020/12/20 05:08:20;;;;;;;17.85;10.38;;;;;;;8.25;100.00;101104.66;4985647;28;20031;-72
2020/12/20 05:10:47;;;;;;;22.23;9.65;;;;;;;8.22;100.00;101107.44;4988125;28;20822;-72
2020/12/20 05:13:12;;;;;;;25.83;10.13;;;;;;;8.22;100.00;101096.75;4972577;28;20045;-71
2020/12/20 05:15:38;;;;;;;17.73;9.63;;;;;;;8.23;100.00;101104.72;4957420;28;20030;-72
2020/12/20 05:18:15;;;;;;;18.40;9.98;;;;;;;8.33;100.00;101105.19;4957376;28;20149;-68
2020/12/20 05:20:48;;;;;;;22.27;10.55;;;;;;;8.35;100.00;101114.84;4953733;28;20057;-69
2020/12/20 05:23:17;;;;;;;25.75;9.63;;;;;;;8.28;100.00;101124.06;4964911;28;20078;-72
2020/12/20 05:25:44;;;;;;;15.73;8.90;;;;;;;8.24;100.00;101133.19;4970181;28;20030;-72
2020/12/20 05:28:17;;;;;;;20.95;9.60;;;;;;;8.22;100.00;101135.06;4970439;28;20030;-71
2020/12/20 05:30:48;;;;;;;17.90;10.23;;;;;;;8.36;100.00;101126.41;4971065;28;20065;-69
2020/12/20 05:33:32;;;;;;;20.42;9.75;;;;;;;8.40;100.00;101138.69;4983238;28;20096;-70
2020/12/20 05:36:24;;;;;;;18.80;10.45;;;;;;;8.40;100.00;101136.00;4986525;28;20449;-71
2020/12/20 05:39:12;;;;;;;16.55;10.07;;;;;;;8.41;100.00;101135.94;4988615;28;21712;-72
2020/12/20 05:41:38;;;;;;;19.17;10.15;;;;;;;8.42;100.00;101131.47;4949891;28;20035;-72
2020/12/20 05:44:14;;;;;;;22.92;10.90;;;;;;;8.38;100.00;101128.09;4952436;28;20045;-71
2020/12/20 05:46:42;;;;;;;19.77;10.18;;;;;;;8.42;100.00;101134.13;4985860;28;20027;-72
2020/12/20 05:49:21;;;;;;;19.85;9.07;;;;;;;8.38;100.00;101132.56;4963792;28;20108;-72
2020/12/20 05:52:08;;;;;;;18.30;8.75;;;;;;;8.37;100.00;101125.47;4969975;28;20065;-70
2020/12/20 05:54:38;;;;;;;19.88;9.38;;;;;;;8.38;100.00;101122.72;4987188;28;20482;-71
2020/12/20 05:57:08;;;;;;;22.77;9.85;;;;;;;8.47;100.00;101124.06;4956794;28;20069;-72
2020/12/20 05:59:33;;;;;;;20.35;9.00;;;;;;;8.49;100.00;101128.41;4971622;28;20038;-70
2020/12/20 06:02:02;;;;;;;19.02;9.13;;;;;;;8.44;100.00;101129.59;4985395;28;20026;-70
2020/12/20 06:04:29;;;;;;;15.70;8.80;;;;;;;8.41;100.00;101129.72;4946130;28;20390;-72
2020/12/20 06:06:56;;;;;;;16.05;9.00;;;;;;;8.46;100.00;101133.91;4985196;28;20062;-72
2020/12/20 06:09:24;;;;;;;18.13;8.68;;;;;;;8.42;100.00;101128.78;4970390;28;20041;-68
2020/12/20 06:11:52;;;;;;;15.65;7.78;;;;;;;8.33;100.00;101137.28;4969119;28;20045;-70
2020/12/20 06:14:22;;;;;;;17.55;7.43;;;;;;;8.37;100.00;101133.50;4956107;28;20623;-70
2020/12/20 06:17:30;;;;;;;21.77;8.45;;;;;;;8.37;100.00;101133.50;4968628;28;20046;-71
2020/12/20 06:19:55;;;;;;;18.45;8.27;;;;;;;8.39;100.00;101142.34;4960379;28;20515;-68
2020/12/20 06:22:23;;;;;;;16.88;7.80;;;;;;;8.32;100.00;101146.25;4981795;28;20065;-71
2020/12/20 06:24:51;;;;;;;17.88;7.72;;;;;;;8.29;100.00;101138.31;4965633;28;20522;-72
2020/12/20 06:27:19;;;;;;;12.55;7.10;;;;;;;8.23;100.00;101143.97;4986555;28;20041;-72
2020/12/20 06:29:51;;;;;;;14.18;7.78;;;;;;;8.25;100.00;101140.28;4966999;28;20038;-72
2020/12/20 06:32:54;;;;;;;16.58;8.77;;;;;;;8.16;100.00;101145.19;4965132;28;20045;-71
2020/12/20 06:35:31;;;;;;;14.10;8.18;;;;;;;8.11;100.00;101146.28;4983663;28;20026;-71
2020/12/20 06:37:57;;;;;;;16.20;8.23;;;;;;;8.07;100.00;101151.84;4970641;28;20041;-72
2020/12/20 06:40:29;;;;;;;14.63;8.43;;;;;;;8.04;100.00;101147.50;4979277;28;20486;-70
2020/12/20 06:42:55;;;;;;;20.27;8.95;;;;;;;8.02;100.00;101149.38;4985557;28;20038;-71
2020/12/20 06:45:21;;;;;;;14.50;8.20;;;;;;;7.99;100.00;101141.50;4982241;28;20027;-70
2020/12/20 06:47:49;;;;;;;18.58;8.65;;;;;;;7.96;100.00;101149.66;4984296;28;20419;-71
2020/12/20 06:50:41;;;;;;;14.85;8.18;;;;;;;7.96;100.00;101148.81;4984300;28;20034;-72
2020/12/20 06:53:08;;;;;;;15.77;9.02;;;;;;;7.91;100.00;101146.34;4980104;28;20035;-72
2020/12/20 06:55:35;;;;;;;16.42;9.02;;;;;;;7.88;100.00;101143.81;4970862;28;20207;-71
2020/12/20 06:58:03;;;;;;;13.43;8.20;;;;;;;7.88;100.00;101157.19;4969607;28;20476;-71
2020/12/20 07:00:43;;;;;;;17.63;9.25;;;;;;;7.85;100.00;101151.97;4984302;28;20808;-72
2020/12/20 07:03:10;;;;;;;19.63;8.60;;;;;;;7.82;100.00;101156.59;4968992;28;20048;-72
2020/12/20 07:05:40;;;;;;;18.95;8.63;;;;;;;7.81;100.00;101150.38;4969997;28;20030;-72
2020/12/20 07:08:22;;;;;;;21.15;8.48;;;;;;;7.77;100.00;101147.94;4970466;28;20520;-72
2020/12/20 07:10:53;;;;;;;19.80;9.93;;;;;;;7.76;100.00;101162.22;4971621;28;20042;-70
2020/12/20 07:13:41;;;;;;;24.15;8.98;;;;;;;7.72;100.00;101157.00;4965322;28;20455;-71
2020/12/20 07:16:12;;;;;;;17.13;8.57;;;;;;;7.71;100.00;101159.78;4950600;28;20034;-70
2020/12/20 07:18:47;;;;;;;15.80;9.40;;;;;;;7.68;100.00;101154.56;4981356;28;20080;-71
2020/12/20 07:21:33;;;;;;;20.95;9.40;;;;;;;7.68;100.00;101159.91;4985646;28;20037;-72
2020/12/20 07:24:09;;;;;;;19.20;9.30;;;;;;;7.67;100.00;101166.16;4985139;28;20042;-72
2020/12/20 07:26:35;;;;;;;17.15;9.85;;;;;;;7.65;100.00;101168.06;4967118;28;20049;-70
2020/12/20 07:29:02;;;;;;;15.85;9.20;;;;;;;7.62;100.00;101165.50;4987588;28;20458;-71
2020/12/20 07:31:28;;;;;;;21.33;9.05;;;;;;;7.65;100.00;101173.41;4970634;28;20105;-70
2020/12/20 07:33:54;;;;;;;20.38;9.73;;;;;;;7.67;100.00;101179.53;4960891;28;20860;-71
2020/12/20 07:36:20;;;;;;;16.88;9.30;;;;;;;7.62;100.00;101171.72;4966966;28;20093;-72
2020/12/20 07:38:47;;;;;;;16.67;9.52;;;;;;;7.60;100.00;101183.41;4972812;28;20022;-72
2020/12/20 07:41:13;;;;;;;18.27;9.48;;;;;;;7.59;100.00;101179.03;4970410;28;20038;-71
2020/12/20 07:43:40;;;;;;;17.05;9.18;;;;;;;7.57;100.00;101180.88;4990329;28;20038;-72
2020/12/20 07:46:09;;;;;;;15.27;9.65;;;;;;;7.53;100.00;101188.16;4966893;28;20092;-71
2020/12/20 07:48:36;;;;;;;21.15;10.98;;;;;;;7.53;100.00;101192.66;4968291;28;20038;-68
2020/12/20 07:51:11;;;;;;;18.60;9.43;;;;;;;7.51;100.00;101191.84;4972202;28;20038;-71
2020/12/20 07:53:44;;;;;;;21.20;10.57;;;;;;;7.50;100.00;101198.13;4989025;28;20164;-72
2020/12/20 07:56:09;;;;;;;17.70;10.35;;;;;;;7.49;100.00;101199.91;4985182;28;20053;-72
2020/12/20 07:58:35;;;;;;;20.98;11.43;;;;;;;7.48;100.00;101197.31;4970685;28;20042;-69
2020/12/20 08:01:06;;;;;;;18.70;10.05;;;;;;;7.50;100.00;101204.34;4970071;28;20043;-72
2020/12/20 08:03:33;;;;;;;19.48;11.27;;;;;;;7.53;100.00;101206.84;4987271;28;20031;-72
2020/12/20 08:06:06;;;;;;;21.60;10.18;;;;;;;7.58;100.00;101209.34;4983734;28;20031;-70
2020/12/20 08:08:32;;;;;;;23.67;10.63;;;;;;;7.55;100.00;101212.13;4987722;28;20039;-71
2020/12/20 08:11:02;;;;;;;17.52;10.40;;;;;;;7.53;100.00;101209.53;4969636;28;20045;-71
2020/12/20 08:13:28;;;;;;;19.73;9.95;;;;;;;7.60;100.00;101210.13;4990535;28;20038;-71
2020/12/20 08:15:53;;;;;;;20.38;11.13;;;;;;;7.56;100.00;101213.88;4989213;28;20030;-72
2020/12/20 08:18:18;;;;;;;20.38;9.60;;;;;;;7.65;100.00;101213.47;4976395;28;20671;-72
2020/12/20 08:20:44;;;;;;;18.48;10.35;;;;;;;7.60;100.00;101220.81;4990737;28;20049;-71
2020/12/20 08:23:11;;;;;;;26.58;9.50;;;;;;;7.73;100.00;101214.84;4973608;28;20085;-72
2020/12/20 08:25:36;;;;;;;15.35;9.55;;;;;;;7.77;100.00;101218.28;4973605;28;20038;-71
2020/12/20 08:28:01;;;;;;;19.75;9.68;;;;;;;7.86;100.00;101220.53;4967510;28;20030;-71
2020/12/20 08:30:27;;;;;;;17.50;9.13;;;;;;;7.93;100.00;101213.97;4972633;28;20034;-71
2020/12/20 08:32:52;;;;;;;16.50;9.00;;;;;;;7.82;100.00;101221.59;4988303;28;20121;-71
2020/12/20 08:35:22;;;;;;;23.20;9.02;;;;;;;7.78;100.00;101222.66;4982181;28;20109;-71
2020/12/20 08:37:53;;;;;;;20.38;9.35;;;;;;;7.78;100.00;101220.00;4971298;28;20034;-71
2020/12/20 08:40:19;;;;;;;17.35;8.95;;;;;;;7.78;100.00;101219.16;4971871;28;20034;-72
2020/12/20 08:42:51;;;;;;;16.98;9.05;;;;;;;7.77;100.00;101223.63;4989766;28;20664;-72
2020/12/20 08:45:18;;;;;;;17.30;9.20;;;;;;;7.76;100.00;101216.53;4989133;28;20109;-71
2020/12/20 08:47:44;;;;;;;17.00;8.75;;;;;;;7.85;100.00;101216.09;4975122;28;20030;-71
2020/12/20 08:50:10;;;;;;;13.48;8.55;;;;;;;7.82;100.00;101229.63;4966604;28;20038;-71
2020/12/20 08:52:36;;;;;;;13.05;8.18;;;;;;;7.82;100.00;101220.75;4957786;28;20124;-72
2020/12/20 08:55:04;;;;;;;16.45;9.32;;;;;;;7.91;100.00;101225.66;4988603;28;20125;-71
2020/12/20 08:57:38;;;;;;;25.25;11.65;;;;;;;7.97;100.00;101226.25;4957504;28;20045;-72
2020/12/20 09:00:08;;;;;;;24.52;10.90;;;;;;;7.99;100.00;101229.72;4969957;28;20035;-72
2020/12/20 09:02:33;;;;;;;19.65;10.55;;;;;;;8.02;100.00;101234.06;4982872;28;20045;-71
2020/12/20 09:05:02;;;;;;;22.80;10.68;;;;;;;8.03;100.00;101241.13;4983651;28;20532;-69
2020/12/20 09:07:46;;;;;;;22.88;10.15;;;;;;;8.07;100.00;101240.06;4983712;28;20601;-71
2020/12/20 09:10:20;;;;;;;15.30;7.82;;;;;;;8.11;100.00;101239.84;4963236;28;20039;-72
2020/12/20 09:12:51;;;;;;;16.48;7.22;;;;;;;8.19;100.00;101252.00;4985347;28;20081;-71
2020/12/20 09:15:18;;;;;;;18.67;9.95;;;;;;;8.24;100.00;101250.00;4984659;28;20053;-73
2020/12/20 09:17:48;;;;;;;16.13;7.95;;;;;;;8.27;100.00;101249.88;4972248;28;20112;-74
2020/12/20 09:20:17;;;;;;;16.13;7.15;;;;;;;8.31;100.00;101254.16;4978888;28;20494;-73
2020/12/20 09:22:47;;;;;;;13.68;6.68;;;;;;;8.37;100.00;101259.22;4987674;28;20060;-74
2020/12/20 09:25:29;;;;;;;11.23;6.55;;;;;;;8.42;100.00;101266.09;4982423;28;20057;-73
2020/12/20 09:27:56;;;;;;;13.23;5.97;;;;;;;8.51;100.00;101259.44;4971170;28;20085;-71
2020/12/20 09:30:34;;;;;;;13.63;6.10;;;;;;;8.58;100.00;101263.53;4972116;28;20081;-69
2020/12/20 09:33:01;;;;;;;15.93;6.30;;;;;;;8.66;100.00;101264.06;4971228;28;20101;-71
2020/12/20 09:35:26;;;;;;;13.40;6.47;;;;;;;8.72;100.00;101263.75;4972454;28;20030;-71
2020/12/20 09:37:53;;;;;;;10.43;5.68;;;;;;;8.74;100.00;101269.91;4971552;28;20050;-70
2020/12/20 09:40:19;;;;;;;11.25;5.43;;;;;;;8.79;100.00;101265.22;4971171;28;20038;-71
2020/12/20 09:42:45;;;;;;;18.30;5.47;;;;;;;8.80;100.00;101264.28;4987595;28;20037;-71
2020/12/20 09:45:11;;;;;;;10.82;4.95;;;;;;;8.90;100.00;101267.34;4968144;28;20030;-71
2020/12/20 09:47:41;;;;;;;12.98;6.07;;;;;;;8.88;100.00;101269.25;4984116;28;20464;-72
2020/12/20 09:50:08;;;;;;;13.55;5.55;;;;;;;9.03;100.00;101270.31;4983894;28;20629;-71
2020/12/20 09:52:34;;;;;;;17.77;5.95;;;;;;;8.96;100.00;101272.41;4984064;28;20125;-73
2020/12/20 09:55:00;;;;;;;14.40;5.95;;;;;;;9.01;100.00;101280.25;4970483;28;20402;-73
2020/12/20 09:57:27;;;;;;;17.05;6.25;;;;;;;9.05;100.00;101266.63;4989809;28;20042;-71
2020/12/20 09:59:53;;;;;;;16.33;5.93;;;;;;;9.08;100.00;101274.50;4981902;28;20049;-72
2020/12/20 10:02:18;;;;;;;11.85;5.25;;;;;;;9.10;100.00;101274.41;4968847;28;20041;-72
2020/12/20 10:04:44;;;;;;;13.75;5.25;;;;;;;9.13;100.00;101276.97;4959451;28;20034;-72
2020/12/20 10:07:09;;;;;;;12.40;5.47;;;;;;;9.15;100.00;101275.06;4946004;28;20520;-73
2020/12/20 10:09:34;;;;;;;17.00;5.10;;;;;;;9.15;100.00;101291.13;4965997;28;20190;-69
2020/12/20 10:12:00;;;;;;;16.30;4.78;;;;;;;9.22;100.00;101280.03;4968203;28;20511;-72
2020/12/20 10:14:27;;;;;;;13.73;4.57;;;;;;;9.28;100.00;101284.22;4965598;28;20030;-73
2020/12/20 10:16:53;;;;;;;16.25;4.53;;;;;;;9.31;100.00;101289.44;4965288;28;20529;-73
2020/12/20 10:19:18;;;;;;;13.52;4.75;;;;;;;9.44;100.00;101287.00;4982855;28;20042;-72
2020/12/20 10:21:51;;;;;;;15.13;4.22;;;;;;;9.40;100.00;101288.09;4948711;28;20035;-71
2020/12/20 10:24:17;;;;;;;20.65;7.28;;;;;;;9.46;100.00;101282.41;4966171;28;20491;-70
2020/12/20 10:26:47;;;;;;;30.60;13.63;;;;;;;9.51;100.00;101280.38;4983967;28;20466;-73
2020/12/20 10:29:15;;;;;;;16.58;10.68;;;;;;;9.57;100.00;101269.34;4983452;28;20030;-71
2020/12/20 10:31:45;;;;;;;19.02;8.50;;;;;;;9.64;100.00;101282.34;4971679;28;20568;-73
2020/12/20 10:34:11;;;;;;;32.47;13.50;;;;;;;9.69;100.00;101274.06;4966951;28;20390;-73
2020/12/20 10:36:38;;;;;;;21.35;8.27;;;;;;;9.70;100.00;101276.69;4968689;28;20033;-71
2020/12/20 10:39:05;;;;;;;23.88;7.90;;;;;;;9.79;100.00;101282.50;4968416;28;20069;-72
2020/12/20 10:41:38;;;;;;;22.35;10.38;;;;;;;9.73;100.00;101264.94;4962048;28;20038;-71
2020/12/20 10:44:05;;;;;;;27.05;10.10;;;;;;;9.77;100.00;101271.00;4958859;28;20138;-72
2020/12/20 10:46:33;;;;;;;18.02;5.70;;;;;;;9.71;100.00;101272.19;4968642;28;20142;-72
2020/12/20 10:48:59;;;;;;;25.08;8.10;;;;;;;9.75;100.00;101273.78;4966846;28;20073;-72
2020/12/20 10:51:25;;;;;;;18.33;5.65;;;;;;;9.89;100.00;101275.72;4965638;28;20046;-72
2020/12/20 10:53:50;;;;;;;15.93;5.82;;;;;;;9.93;100.00;101274.63;4969725;28;20674;-72
2020/12/20 10:56:18;;;;;;;11.07;5.43;;;;;;;10.01;100.00;101264.34;4967403;28;20123;-73
2020/12/20 10:58:53;;;;;;;17.90;6.20;;;;;;;9.98;100.00;101259.16;4966386;28;20049;-72
2020/12/20 11:01:19;;;;;;;18.13;4.90;;;;;;;10.07;100.00;101255.97;4969965;28;20045;-73
2020/12/20 11:03:48;;;;;;;14.57;4.45;;;;;;;10.05;100.00;101263.25;4988876;28;20041;-72
2020/12/20 11:06:21;;;;;;;17.02;5.05;;;;;;;10.08;100.00;101257.69;4967110;28;20092;-72
2020/12/20 11:08:47;;;;;;;;;;;;;;;10.15;100.00;101261.78;4954543;28;20034;-72
2020/12/20 11:11:13;;;;;;;19.48;7.30;;;;;;;10.12;100.00;101252.06;4986085;28;19918;-73
2020/12/20 11:13:42;;;;;;;32.35;12.48;;;;;;;10.05;100.00;101255.19;4958367;28;20057;-72
2020/12/20 11:16:14;;;;;;;17.20;5.25;;;;;;;10.09;100.00;101254.94;4983338;28;20050;-72
2020/12/20 11:18:40;;;;;;;20.05;7.45;;;;;;;10.09;100.00;101256.75;4971348;28;20157;-72
2020/12/20 11:21:06;;;;;;;39.83;9.68;;;;;;;10.04;100.00;101251.66;4951759;28;20129;-72
2020/12/20 11:23:31;;;;;;;14.35;5.38;;;;;;;10.05;100.00;101255.19;4987941;28;20435;-72
2020/12/20 11:25:56;;;;;;;19.73;7.93;;;;;;;10.14;100.00;101260.06;4969031;28;20041;-73
2020/12/20 11:28:22;;;;;;;17.65;6.13;;;;;;;10.14;100.00;101260.91;4987312;28;20655;-73